Time;durP1;ratioP1;P1;durP2;ratioP2;P2;SDS_P1;SDS_P2;PMS_P1;PMS_P2;Temp;Humidity;BMP_temperature;BMP_pressure;BME280_temperature;BME280_humidity;BME280_pressure;Samples;Min_cycle;Max_cycle;Signal;HPM_P1;HPM_P2
2022/03/31 00:00:31;;;;;;;18.33;14.75;;;;;;;;;;5009594;28;20060;-77
2022/03/31 00:02:59;;;;;;;20.80;14.18;;;;;;;;;;5038098;28;20539;-77
2022/03/31 00:05:27;;;;;;;23.20;14.93;;;;;;;;;;5033649;28;20037;-78
2022/03/31 00:07:59;;;;;;;27.77;16.45;;;;;;;;;;5047772;28;20045;-77
2022/03/31 00:10:27;;;;;;;19.65;15.00;;;;;;;;;;5044911;28;20037;-77
2022/03/31 00:12:56;;;;;;;17.95;13.88;;;;;;;;;;5029130;28;20047;-77
2022/03/31 00:15:24;;;;;;;22.75;13.88;;;;;;;;;;5036126;23;20088;-74
2022/03/31 00:18:01;;;;;;;22.33;14.30;;;;;;;;;;5050871;28;20128;-74
2022/03/31 00:20:29;;;;;;;21.38;14.85;;;;;;;;;;5015906;28;20144;-74
2022/03/31 00:22:57;;;;;;;25.63;14.80;;;;;;;;;;5030480;28;20033;-73
2022/03/31 00:25:25;;;;;;;25.48;14.43;;;;;;;;;;5054478;28;20199;-74
2022/03/31 00:27:56;;;;;;;20.77;14.68;;;;;;;;;;5061762;28;20041;-74
2022/03/31 00:30:23;;;;;;;17.73;14.27;;;;;;;;;;5045442;28;20041;-73
2022/03/31 00:32:52;;;;;;;21.23;15.77;;;;;;;;;;5043700;28;20132;-75
2022/03/31 00:35:19;;;;;;;23.80;15.90;;;;;;;;;;5041326;28;20144;-74
2022/03/31 00:37:47;;;;;;;21.65;16.05;;;;;;;;;;5040227;28;20049;-75
2022/03/31 00:40:18;;;;;;;23.63;15.60;;;;;;;;;;5037213;28;20052;-74
2022/03/31 00:42:47;;;;;;;22.70;15.68;;;;;;;;;;5042095;28;20049;-75
2022/03/31 00:45:20;;;;;;;20.50;15.63;;;;;;;;;;5028123;28;20067;-74
2022/03/31 00:47:47;;;;;;;22.92;16.42;;;;;;;;;;5028698;28;20037;-74
2022/03/31 00:50:16;;;;;;;24.15;16.90;;;;;;;;;;5026828;28;20155;-75
2022/03/31 00:52:43;;;;;;;19.98;15.77;;;;;;;;;;5043618;28;20037;-74
2022/03/31 00:55:12;;;;;;;21.15;15.27;;;;;;;;;;5028512;28;20042;-75
2022/03/31 00:57:39;;;;;;;22.88;14.93;;;;;;;;;;5049038;28;20102;-74
2022/03/31 01:00:08;;;;;;;23.55;15.88;;;;;;;;;;5048095;28;20417;-74
2022/03/31 01:02:37;;;;;;;21.88;16.10;;;;;;;;;;5042245;28;20061;-75
2022/03/31 01:05:06;;;;;;;25.45;17.05;;;;;;;;;;5037449;28;20052;-74
2022/03/31 01:07:37;;;;;;;20.75;16.27;;;;;;;;;;5046948;28;20692;-74
2022/03/31 01:10:05;;;;;;;26.05;18.08;;;;;;;;;;5030033;28;20083;-74
2022/03/31 01:12:34;;;;;;;26.73;15.80;;;;;;;;;;5041675;28;20076;-75
2022/03/31 01:15:07;;;;;;;19.92;15.82;;;;;;;;;;5016329;28;20041;-75
2022/03/31 01:17:35;;;;;;;21.20;15.50;;;;;;;;;;5057502;28;20503;-73
2022/03/31 01:20:04;;;;;;;22.05;17.80;;;;;;;;;;5054366;28;20702;-75
2022/03/31 01:22:32;;;;;;;25.42;17.50;;;;;;;;;;5044389;28;20588;-74
2022/03/31 01:25:00;;;;;;;28.95;18.83;;;;;;;;;;5015377;28;20663;-77
2022/03/31 01:27:27;;;;;;;28.40;19.05;;;;;;;;;;5028441;28;20740;-75
2022/03/31 01:29:55;;;;;;;30.30;19.92;;;;;;;;;;5029160;28;20041;-74
2022/03/31 01:32:22;;;;;;;28.20;19.75;;;;;;;;;;5045439;28;20090;-74
2022/03/31 01:34:50;;;;;;;25.83;19.20;;;;;;;;;;5027913;28;20034;-74
2022/03/31 01:37:17;;;;;;;29.42;19.23;;;;;;;;;;5048528;28;20065;-74
2022/03/31 01:39:45;;;;;;;29.20;19.20;;;;;;;;;;5061114;28;20044;-74
2022/03/31 01:42:13;;;;;;;26.45;18.58;;;;;;;;;;5050253;28;20052;-74
2022/03/31 01:44:41;;;;;;;33.25;18.88;;;;;;;;;;5027574;28;20132;-74
2022/03/31 01:47:09;;;;;;;28.58;20.08;;;;;;;;;;5042027;28;20111;-74
2022/03/31 01:49:39;;;;;;;25.67;19.25;;;;;;;;;;5047042;28;20073;-76
2022/03/31 01:52:07;;;;;;;28.98;20.00;;;;;;;;;;5005028;28;20049;-73
2022/03/31 01:54:34;;;;;;;26.58;19.15;;;;;;;;;;5042588;28;20377;-74
2022/03/31 01:57:02;;;;;;;28.10;20.15;;;;;;;;;;5024833;28;20048;-74
2022/03/31 01:59:34;;;;;;;29.05;21.15;;;;;;;;;;5044681;28;20124;-73
2022/03/31 02:02:01;;;;;;;31.10;21.70;;;;;;;;;;5038720;28;20087;-74
2022/03/31 02:04:36;;;;;;;25.75;19.13;;;;;;;;;;5029325;28;20468;-73
2022/03/31 02:07:03;;;;;;;21.38;16.13;;;;;;;;;;5054478;28;20094;-74
2022/03/31 02:09:31;;;;;;;20.38;16.88;;;;;;;;;;5032542;28;20079;-74
2022/03/31 02:11:58;;;;;;;20.38;16.67;;;;;;;;;;5051818;28;20069;-74
2022/03/31 02:14:26;;;;;;;28.27;17.95;;;;;;;;;;5038593;28;20048;-74
2022/03/31 02:16:55;;;;;;;26.77;18.02;;;;;;;;;;5049049;28;20040;-74
2022/03/31 02:19:24;;;;;;;24.73;18.10;;;;;;;;;;5050631;28;20094;-75
2022/03/31 02:21:52;;;;;;;24.55;16.83;;;;;;;;;;5032892;28;20051;-75
2022/03/31 02:24:19;;;;;;;24.80;16.77;;;;;;;;;;5045135;28;20061;-74
2022/03/31 02:26:48;;;;;;;27.38;21.20;;;;;;;;;;5049930;28;20047;-75
2022/03/31 02:29:16;;;;;;;31.65;20.95;;;;;;;;;;5033054;28;20041;-75
2022/03/31 02:31:43;;;;;;;30.88;22.02;;;;;;;;;;5051430;28;20128;-75
2022/03/31 02:34:11;;;;;;;23.70;18.83;;;;;;;;;;5048093;28;20515;-74
2022/03/31 02:36:40;;;;;;;26.90;19.75;;;;;;;;;;5049956;28;20049;-75
2022/03/31 02:39:08;;;;;;;27.77;19.95;;;;;;;;;;5032871;28;20137;-75
2022/03/31 02:41:35;;;;;;;29.88;23.00;;;;;;;;;;5027165;28;20049;-75
2022/03/31 02:44:17;;;;;;;36.85;23.52;;;;;;;;;;5047912;28;20080;-74
2022/03/31 02:46:46;;;;;;;28.27;20.58;;;;;;;;;;5050341;28;20652;-74
2022/03/31 02:49:13;;;;;;;26.58;19.02;;;;;;;;;;5063104;28;20045;-74
2022/03/31 02:51:40;;;;;;;27.80;20.50;;;;;;;;;;5048889;28;20056;-75
2022/03/31 02:56:54;;;;;;;28.65;20.50;;;;;;;;;;5050227;28;20057;-75
2022/03/31 02:59:22;;;;;;;30.38;22.17;;;;;;;;;;5040604;28;20049;-74
2022/03/31 03:01:50;;;;;;;31.15;21.38;;;;;;;;;;5032039;28;20091;-73
2022/03/31 03:04:18;;;;;;;31.17;21.25;;;;;;;;;;5032218;28;20049;-74
2022/03/31 03:06:45;;;;;;;29.98;21.05;;;;;;;;;;5042042;28;20225;-74
2022/03/31 03:09:13;;;;;;;29.00;21.98;;;;;;;;;;5030361;28;20176;-74
2022/03/31 03:11:40;;;;;;;28.05;20.00;;;;;;;;;;5026456;28;20087;-74
2022/03/31 03:14:11;;;;;;;24.27;18.80;;;;;;;;;;5050019;28;20051;-75
2022/03/31 03:16:39;;;;;;;24.70;19.27;;;;;;;;;;5050688;28;20107;-75
2022/03/31 03:19:07;;;;;;;25.13;19.67;;;;;;;;;;5050554;28;20298;-75
2022/03/31 03:21:35;;;;;;;26.55;20.65;;;;;;;;;;5043293;28;20042;-74
2022/03/31 03:24:03;;;;;;;27.70;20.98;;;;;;;;;;5029218;28;20060;-74
2022/03/31 03:26:31;;;;;;;28.85;21.63;;;;;;;;;;5040911;28;20733;-74
2022/03/31 03:28:59;;;;;;;24.42;19.55;;;;;;;;;;5031706;28;20045;-75
2022/03/31 03:31:26;;;;;;;24.05;20.42;;;;;;;;;;5029952;28;20553;-74
2022/03/31 03:33:53;;;;;;;24.90;19.13;;;;;;;;;;5049611;28;20461;-75
2022/03/31 03:36:21;;;;;;;30.17;21.17;;;;;;;;;;5031809;28;20132;-75
2022/03/31 03:38:48;;;;;;;26.17;20.90;;;;;;;;;;5046501;28;20497;-75
2022/03/31 03:41:16;;;;;;;28.58;21.40;;;;;;;;;;5049193;28;20124;-74
2022/03/31 03:43:43;;;;;;;32.10;23.23;;;;;;;;;;5050740;28;20103;-75
2022/03/31 03:46:11;;;;;;;25.83;20.60;;;;;;;;;;5060805;28;20041;-75
2022/03/31 03:48:38;;;;;;;29.80;21.27;;;;;;;;;;5044672;28;20067;-74
2022/03/31 03:51:06;;;;;;;26.10;22.58;;;;;;;;;;5048574;28;20037;-75
2022/03/31 03:53:34;;;;;;;29.00;22.85;;;;;;;;;;5052057;28;20076;-75
2022/03/31 03:56:01;;;;;;;35.75;23.60;;;;;;;;;;5067163;28;20143;-74
2022/03/31 03:58:29;;;;;;;30.83;23.17;;;;;;;;;;5035747;28;20041;-74
2022/03/31 04:00:56;;;;;;;32.17;22.70;;;;;;;;;;5045805;28;20045;-75
2022/03/31 04:03:24;;;;;;;37.10;23.45;;;;;;;;;;5037410;28;20412;-75
2022/03/31 04:05:51;;;;;;;27.13;21.90;;;;;;;;;;5047607;28;20040;-75
2022/03/31 04:08:19;;;;;;;32.35;23.27;;;;;;;;;;5031989;28;20037;-75
2022/03/31 04:10:46;;;;;;;32.13;23.70;;;;;;;;;;5047720;28;20079;-75
2022/03/31 04:13:14;;;;;;;29.80;22.48;;;;;;;;;;5027831;28;20045;-74
2022/03/31 04:15:42;;;;;;;27.52;22.90;;;;;;;;;;5042870;28;20040;-75
2022/03/31 04:18:10;;;;;;;29.08;21.65;;;;;;;;;;5026409;28;20073;-75
2022/03/31 04:20:38;;;;;;;30.85;22.65;;;;;;;;;;5021811;28;20048;-75
2022/03/31 04:23:08;;;;;;;27.02;21.85;;;;;;;;;;5047428;28;20067;-74
2022/03/31 04:25:35;;;;;;;32.47;22.13;;;;;;;;;;5028296;28;20053;-74
2022/03/31 04:28:04;;;;;;;31.35;22.70;;;;;;;;;;5030826;28;20426;-73
2022/03/31 04:30:52;;;;;;;31.65;22.75;;;;;;;;;;5023607;28;20052;-74
2022/03/31 04:33:19;;;;;;;29.77;23.02;;;;;;;;;;5046347;28;20444;-74
2022/03/31 04:35:47;;;;;;;29.27;23.25;;;;;;;;;;5026031;28;20470;-74
2022/03/31 04:38:14;;;;;;;34.53;24.10;;;;;;;;;;5041307;28;20048;-74
2022/03/31 04:40:42;;;;;;;27.52;22.02;;;;;;;;;;5023129;28;20136;-72
2022/03/31 04:43:09;;;;;;;30.05;24.30;;;;;;;;;;5024217;28;20072;-74
2022/03/31 04:45:37;;;;;;;26.02;22.60;;;;;;;;;;5040273;28;20045;-73
2022/03/31 04:48:04;;;;;;;26.10;21.23;;;;;;;;;;5050262;28;20110;-73
2022/03/31 04:50:32;;;;;;;27.50;21.83;;;;;;;;;;5048199;28;20072;-74
2022/03/31 04:52:59;;;;;;;22.17;19.48;;;;;;;;;;5027475;28;20051;-75
2022/03/31 04:55:27;;;;;;;29.27;23.13;;;;;;;;;;5043643;28;20051;-74
2022/03/31 04:57:54;;;;;;;28.13;22.92;;;;;;;;;;5045761;28;20045;-75
2022/03/31 05:00:21;;;;;;;34.83;23.55;;;;;;;;;;5036403;28;20040;-75
2022/03/31 05:02:49;;;;;;;31.52;21.88;;;;;;;;;;5044165;28;20072;-75
2022/03/31 05:05:16;;;;;;;26.73;21.63;;;;;;;;;;5018077;28;20057;-74
2022/03/31 05:07:44;;;;;;;32.28;25.17;;;;;;;;;;5035590;28;20033;-73
2022/03/31 05:10:11;;;;;;;30.58;22.58;;;;;;;;;;5038472;28;20040;-76
2022/03/31 05:13:07;;;;;;;32.28;25.05;;;;;;;;;;4954311;28;20058;-75
2022/03/31 05:15:36;;;;;;;26.35;22.63;;;;;;;;;;4925830;29;20217;-75
2022/03/31 05:18:04;;;;;;;27.88;21.75;;;;;;;;;;5026363;28;20312;-75
2022/03/31 05:20:34;;;;;;;30.92;21.70;;;;;;;;;;5058279;28;20036;-75
2022/03/31 05:23:01;;;;;;;30.88;24.17;;;;;;;;;;5054259;28;20742;-75
2022/03/31 05:25:29;;;;;;;30.52;22.52;;;;;;;;;;5034566;28;20052;-75
2022/03/31 05:28:00;;;;;;;27.05;22.23;;;;;;;;;;5050481;28;20090;-75
2022/03/31 05:30:27;;;;;;;27.13;22.95;;;;;;;;;;5034626;28;20619;-75
2022/03/31 05:32:55;;;;;;;31.40;24.45;;;;;;;;;;5051390;28;20033;-75
2022/03/31 05:35:23;;;;;;;35.83;25.02;;;;;;;;;;5030547;28;20037;-75
2022/03/31 05:37:50;;;;;;;32.67;23.88;;;;;;;;;;5045399;28;20205;-75
2022/03/31 05:40:18;;;;;;;33.20;23.08;;;;;;;;;;5041269;28;20060;-75
2022/03/31 05:42:46;;;;;;;33.50;24.00;;;;;;;;;;5031642;28;20045;-75
2022/03/31 05:45:13;;;;;;;32.35;24.13;;;;;;;;;;5049151;28;20496;-75
2022/03/31 05:47:42;;;;;;;38.97;23.63;;;;;;;;;;5030411;28;20128;-75
2022/03/31 05:50:10;;;;;;;29.92;21.77;;;;;;;;;;5039629;28;20311;-75
2022/03/31 05:52:42;;;;;;;31.23;23.00;;;;;;;;;;5045492;28;20043;-75
2022/03/31 05:55:09;;;;;;;;;;;;;;;;;;5046096;28;20125;-75
2022/03/31 05:57:37;;;;;;;29.25;22.20;;;;;;;;;;5032136;28;19924;-76
2022/03/31 06:00:06;;;;;;;34.85;24.05;;;;;;;;;;5032622;28;20057;-74
2022/03/31 06:02:37;;;;;;;29.88;23.55;;;;;;;;;;5030572;28;20041;-75
2022/03/31 06:05:22;;;;;;;32.55;23.58;;;;;;;;;;5014165;28;20159;-75
2022/03/31 06:07:52;;;;;;;31.42;23.08;;;;;;;;;;5044710;28;20037;-75
2022/03/31 06:10:20;;;;;;;33.25;23.00;;;;;;;;;;5030059;28;20140;-75
2022/03/31 06:12:47;;;;;;;30.95;24.85;;;;;;;;;;5045329;28;20041;-74
2022/03/31 06:15:18;;;;;;;26.17;21.92;;;;;;;;;;5030441;23;20051;-89
2022/03/31 06:17:53;;;;;;;29.58;22.58;;;;;;;;;;5064817;28;20111;-91
2022/03/31 06:20:26;;;;;;;26.35;23.55;;;;;;;;;;5060216;28;20150;-88
2022/03/31 06:23:01;;;;;;;29.35;23.67;;;;;;;;;;5084631;28;20056;-92
2022/03/31 06:25:41;;;;;;;29.90;23.40;;;;;;;;;;5067395;28;20064;-92
2022/03/31 06:28:09;;;;;;;;;;;;;;;;;;5073967;28;20056;-90
2022/03/31 06:30:39;;;;;;;29.27;23.33;;;;;;;;;;5071272;28;20676;-90
2022/03/31 06:33:08;;;;;;;29.85;23.65;;;;;;;;;;5067989;28;20121;-91
2022/03/31 06:35:38;;;;;;;31.10;24.30;;;;;;;;;;5074170;28;20413;-90
2022/03/31 06:38:10;;;;;;;34.28;24.25;;;;;;;;;;5059450;28;20786;-88
2022/03/31 06:40:38;;;;;;;31.70;24.35;;;;;;;;;;5072079;28;20111;-88
2022/03/31 06:43:07;;;;;;;30.35;24.70;;;;;;;;;;5060775;28;20097;-89
2022/03/31 06:45:38;;;;;;;33.00;23.25;;;;;;;;;;5082890;28;20757;-87
2022/03/31 06:48:06;;;;;;;30.50;24.15;;;;;;;;;;5092002;28;20044;-87
2022/03/31 06:50:34;;;;;;;31.27;24.23;;;;;;;;;;5076041;28;20458;-85
2022/03/31 06:53:02;;;;;;;28.88;23.10;;;;;;;;;;5102373;28;20110;-88
2022/03/31 06:55:30;;;;;;;29.25;23.33;;;;;;;;;;5097471;28;20064;-86
2022/03/31 06:57:58;;;;;;;34.95;24.88;;;;;;;;;;5093302;28;20075;-86
2022/03/31 07:00:25;;;;;;;29.92;23.85;;;;;;;;;;5079454;28;20050;-87
2022/03/31 07:02:53;;;;;;;35.33;25.15;;;;;;;;;;5124598;27;20563;-88
2022/03/31 07:05:20;;;;;;;32.08;23.40;;;;;;;;;;5069813;28;20056;-87
2022/03/31 07:07:48;;;;;;;31.20;23.63;;;;;;;;;;5065562;28;20041;-88
2022/03/31 07:10:17;;;;;;;31.45;25.88;;;;;;;;;;5114724;28;20062;-88
2022/03/31 07:12:45;;;;;;;33.05;24.90;;;;;;;;;;5109622;28;20043;-86
2022/03/31 07:15:12;;;;;;;27.15;23.25;;;;;;;;;;5116923;28;20047;-86
2022/03/31 07:17:40;;;;;;;30.83;25.00;;;;;;;;;;5100690;28;20043;-86
2022/03/31 07:20:08;;;;;;;30.13;24.23;;;;;;;;;;5116008;28;20027;-84
2022/03/31 07:22:42;;;;;;;32.42;24.48;;;;;;;;;;5087482;28;20574;-87
2022/03/31 07:25:10;;;;;;;28.73;22.77;;;;;;;;;;5081197;28;20120;-86
2022/03/31 07:27:37;;;;;;;32.40;26.67;;;;;;;;;;5082210;28;20048;-87
2022/03/31 07:30:10;;;;;;;29.88;23.38;;;;;;;;;;5101034;28;20040;-87
2022/03/31 07:32:46;;;;;;;29.77;23.15;;;;;;;;;;5104155;28;20035;-87
2022/03/31 07:35:13;;;;;;;29.52;24.40;;;;;;;;;;5096235;28;20063;-86
2022/03/31 07:37:41;;;;;;;29.05;21.73;;;;;;;;;;5086958;28;20070;-87
2022/03/31 07:40:08;;;;;;;31.08;23.27;;;;;;;;;;5079300;28;20505;-87
2022/03/31 07:42:36;;;;;;;31.67;23.13;;;;;;;;;;5073262;28;20041;-87
2022/03/31 07:45:03;;;;;;;33.78;24.33;;;;;;;;;;5079306;28;20505;-86
2022/03/31 07:47:31;;;;;;;31.63;23.42;;;;;;;;;;5103407;27;20069;-87
2022/03/31 07:49:58;;;;;;;27.13;22.67;;;;;;;;;;5102378;28;20035;-88
2022/03/31 07:52:25;;;;;;;25.88;22.85;;;;;;;;;;5101153;28;20047;-87
2022/03/31 07:55:06;;;;;;;30.85;22.70;;;;;;;;;;5073520;28;20070;-88
2022/03/31 07:57:34;;;;;;;26.55;19.55;;;;;;;;;;5088017;28;20055;-88
2022/03/31 08:00:03;;;;;;;26.92;22.20;;;;;;;;;;5084433;28;20131;-86
2022/03/31 08:02:42;;;;;;;28.23;21.88;;;;;;;;;;5094812;27;20031;-87
2022/03/31 08:05:11;;;;;;;26.98;21.08;;;;;;;;;;5094523;28;20134;-87
2022/03/31 08:07:39;;;;;;;26.85;20.48;;;;;;;;;;5072705;27;20450;-88
2022/03/31 08:10:07;;;;;;;25.65;21.52;;;;;;;;;;5091786;28;20044;-88
2022/03/31 08:12:35;;;;;;;25.20;20.23;;;;;;;;;;5097960;28;20405;-88
2022/03/31 08:15:10;;;;;;;28.67;21.27;;;;;;;;;;5080175;28;20102;-88
2022/03/31 08:17:38;;;;;;;25.83;21.23;;;;;;;;;;5044556;28;20121;-76
2022/03/31 08:20:07;;;;;;;22.65;19.30;;;;;;;;;;5040932;28;20049;-77
2022/03/31 08:22:35;;;;;;;30.60;21.05;;;;;;;;;;5027382;28;20049;-76
2022/03/31 08:25:03;;;;;;;25.75;20.52;;;;;;;;;;5020382;28;20069;-76
2022/03/31 08:27:54;;;;;;;27.55;20.42;;;;;;;;;;5023910;28;20132;-76
2022/03/31 08:30:23;;;;;;;26.45;20.35;;;;;;;;;;5034368;28;20068;-77
2022/03/31 08:32:51;;;;;;;21.10;17.88;;;;;;;;;;5026213;28;20038;-76
2022/03/31 08:35:19;;;;;;;23.05;19.17;;;;;;;;;;5024628;28;20056;-76
2022/03/31 08:37:46;;;;;;;22.38;16.38;;;;;;;;;;5035995;28;20041;-77
2022/03/31 08:40:14;;;;;;;21.10;17.67;;;;;;;;;;5023753;28;20053;-77
2022/03/31 08:42:41;;;;;;;25.10;20.08;;;;;;;;;;5025742;28;20043;-77
2022/03/31 08:45:11;;;;;;;29.75;19.35;;;;;;;;;;5003776;28;20053;-76
2022/03/31 08:47:40;;;;;;;24.58;18.67;;;;;;;;;;5002860;28;20754;-76
2022/03/31 08:50:17;;;;;;;22.52;17.35;;;;;;;;;;5025140;28;20044;-76
2022/03/31 08:52:44;;;;;;;21.23;16.55;;;;;;;;;;5028294;28;20456;-76
2022/03/31 08:55:12;;;;;;;21.35;14.93;;;;;;;;;;5022585;28;20579;-76
2022/03/31 08:57:39;;;;;;;22.33;16.65;;;;;;;;;;5023882;28;20053;-77
2022/03/31 09:00:08;;;;;;;21.42;15.98;;;;;;;;;;5020186;28;20127;-76
2022/03/31 09:02:37;;;;;;;22.27;16.05;;;;;;;;;;5015165;28;20124;-76
2022/03/31 09:05:12;;;;;;;21.10;15.65;;;;;;;;;;5006468;28;20055;-77
2022/03/31 09:07:51;;;;;;;18.40;14.60;;;;;;;;;;5007294;28;20049;-76
2022/03/31 09:10:25;;;;;;;14.52;13.02;;;;;;;;;;5020636;28;20049;-76
2022/03/31 09:12:53;;;;;;;17.83;13.27;;;;;;;;;;5024175;28;20124;-76
2022/03/31 09:15:30;;;;;;;15.85;13.32;;;;;;;;;;5005824;28;20061;-76
2022/03/31 09:17:59;;;;;;;17.55;12.77;;;;;;;;;;5023932;28;20047;-77
2022/03/31 09:20:36;;;;;;;16.52;13.35;;;;;;;;;;5022930;28;20128;-76
2022/03/31 09:23:06;;;;;;;15.10;12.15;;;;;;;;;;5025528;28;20049;-76
2022/03/31 09:25:33;;;;;;;20.25;14.35;;;;;;;;;;5008055;28;20072;-77
2022/03/31 09:28:11;;;;;;;15.60;11.38;;;;;;;;;;5020443;28;20549;-76
2022/03/31 09:30:55;;;;;;;14.23;11.93;;;;;;;;;;5025252;28;20043;-76
2022/03/31 09:33:26;;;;;;;15.35;12.63;;;;;;;;;;5015943;28;20046;-76
2022/03/31 09:36:07;;;;;;;12.43;11.13;;;;;;;;;;5039475;28;20491;-76
2022/03/31 09:38:36;;;;;;;15.07;10.75;;;;;;;;;;5030274;28;20142;-75
2022/03/31 09:41:17;;;;;;;15.98;12.30;;;;;;;;;;5039548;28;20129;-77
2022/03/31 09:43:45;;;;;;;13.15;11.23;;;;;;;;;;5038143;28;20053;-76
2022/03/31 09:46:29;;;;;;;12.63;10.27;;;;;;;;;;5025318;28;20064;-77
2022/03/31 09:49:09;;;;;;;12.43;10.70;;;;;;;;;;5042247;28;20057;-75
2022/03/31 09:51:37;;;;;;;12.02;10.82;;;;;;;;;;5025665;28;20125;-76
2022/03/31 09:54:04;;;;;;;12.40;11.10;;;;;;;;;;5041221;28;20710;-76
2022/03/31 09:56:38;;;;;;;11.32;10.13;;;;;;;;;;5022803;28;20045;-76
2022/03/31 09:59:08;;;;;;;10.65;9.38;;;;;;;;;;5035314;28;20053;-75
2022/03/31 10:01:36;;;;;;;11.98;10.27;;;;;;;;;;5032645;28;20046;-76
2022/03/31 10:04:14;;;;;;;12.45;10.13;;;;;;;;;;5025519;28;20038;-77
2022/03/31 10:06:42;;;;;;;11.30;9.82;;;;;;;;;;5024941;28;20152;-77
2022/03/31 10:09:11;;;;;;;14.63;10.65;;;;;;;;;;5012127;28;20420;-76
2022/03/31 10:11:46;;;;;;;12.90;10.80;;;;;;;;;;5026449;28;20041;-76
2022/03/31 10:14:20;;;;;;;14.75;11.82;;;;;;;;;;5031951;28;20111;-77
2022/03/31 10:16:52;;;;;;;15.15;11.30;;;;;;;;;;5021795;28;20096;-77
2022/03/31 10:19:27;;;;;;;14.82;10.18;;;;;;;;;;5024794;28;20042;-77
2022/03/31 10:22:02;;;;;;;14.02;10.93;;;;;;;;;;5013831;28;20041;-77
2022/03/31 10:24:44;;;;;;;13.10;10.23;;;;;;;;;;5031446;28;20057;-77
2022/03/31 10:27:35;;;;;;;17.55;11.23;;;;;;;;;;5023406;28;20501;-77
2022/03/31 10:30:13;;;;;;;12.93;10.85;;;;;;;;;;5019583;28;20041;-77
2022/03/31 10:33:03;;;;;;;12.98;10.93;;;;;;;;;;5005363;28;20124;-77
2022/03/31 10:35:35;;;;;;;17.20;12.48;;;;;;;;;;5012332;28;20045;-76
2022/03/31 10:38:23;;;;;;;15.32;12.45;;;;;;;;;;5029158;28;20124;-77
2022/03/31 10:40:54;;;;;;;11.63;9.52;;;;;;;;;;5027079;28;20140;-77
2022/03/31 10:43:29;;;;;;;14.05;11.70;;;;;;;;;;5028229;28;20045;-77
2022/03/31 10:46:01;;;;;;;14.52;12.18;;;;;;;;;;5025405;28;20496;-76
2022/03/31 10:48:41;;;;;;;17.38;12.32;;;;;;;;;;5030008;28;20656;-77
2022/03/31 10:51:12;;;;;;;16.52;11.60;;;;;;;;;;5012618;28;20049;-76
2022/03/31 10:53:41;;;;;;;17.45;12.65;;;;;;;;;;5028225;28;20486;-77
2022/03/31 10:56:40;;;;;;;18.98;12.50;;;;;;;;;;5025648;28;20054;-77
2022/03/31 10:59:38;;;;;;;15.38;12.43;;;;;;;;;;5012202;28;20061;-77
2022/03/31 11:02:22;;;;;;;15.85;12.75;;;;;;;;;;5026514;28;20042;-76
2022/03/31 11:05:01;;;;;;;15.38;12.48;;;;;;;;;;5028911;28;20073;-77
2022/03/31 11:07:28;;;;;;;16.13;12.82;;;;;;;;;;5029928;28;20492;-77
2022/03/31 11:10:05;;;;;;;17.13;12.35;;;;;;;;;;5027813;28;20103;-77
2022/03/31 11:12:38;;;;;;;14.50;12.00;;;;;;;;;;5026662;28;20500;-77
2022/03/31 11:15:07;;;;;;;17.88;12.82;;;;;;;;;;5025957;28;20065;-77
2022/03/31 11:17:35;;;;;;;14.60;11.73;;;;;;;;;;5026029;28;20038;-78
2022/03/31 11:20:22;;;;;;;14.98;11.93;;;;;;;;;;5028888;28;20556;-77
2022/03/31 11:22:52;;;;;;;12.82;10.30;;;;;;;;;;4988795;28;20057;-77
2022/03/31 11:25:20;;;;;;;14.65;11.05;;;;;;;;;;5020626;28;20041;-77
2022/03/31 11:27:50;;;;;;;17.60;12.25;;;;;;;;;;5031698;28;20552;-77
2022/03/31 11:30:18;;;;;;;16.55;11.27;;;;;;;;;;5032513;28;20037;-77
2022/03/31 11:32:49;;;;;;;11.23;9.90;;;;;;;;;;5010370;28;20037;-76
2022/03/31 11:35:22;;;;;;;15.35;11.32;;;;;;;;;;5029113;28;20048;-77
2022/03/31 11:37:50;;;;;;;15.93;10.98;;;;;;;;;;5027974;28;20408;-77
2022/03/31 11:40:19;;;;;;;13.05;10.43;;;;;;;;;;5012467;28;20393;-77
2022/03/31 11:42:50;;;;;;;17.15;12.55;;;;;;;;;;5010808;28;20045;-77
2022/03/31 11:45:26;;;;;;;14.13;11.23;;;;;;;;;;5028861;28;20575;-77
2022/03/31 11:47:55;;;;;;;13.32;10.07;;;;;;;;;;5009739;28;20154;-77
2022/03/31 11:50:26;;;;;;;;;;;;;;;;;;5029387;28;20497;-77
2022/03/31 11:52:54;;;;;;;9.38;8.23;;;;;;;;;;5013706;28;19935;-77
2022/03/31 11:55:22;;;;;;;11.02;8.95;;;;;;;;;;5022014;28;20216;-77
2022/03/31 11:57:56;;;;;;;14.75;10.68;;;;;;;;;;5030231;28;20486;-77
2022/03/31 12:00:48;;;;;;;13.55;10.10;;;;;;;;;;5038770;28;20508;-77
2022/03/31 12:03:17;;;;;;;11.27;9.30;;;;;;;;;;5026552;28;20077;-77
2022/03/31 12:05:58;;;;;;;10.77;9.68;;;;;;;;;;5025883;28;20052;-77
2022/03/31 12:08:26;;;;;;;14.30;9.70;;;;;;;;;;5033004;28;20511;-77
2022/03/31 12:10:54;;;;;;;13.45;9.93;;;;;;;;;;5035365;28;20117;-78
2022/03/31 12:13:22;;;;;;;10.77;8.00;;;;;;;;;;5010357;28;20038;-78
2022/03/31 12:16:12;;;;;;;9.90;8.25;;;;;;;;;;5009228;28;20096;-78
2022/03/31 12:18:43;;;;;;;7.88;6.57;;;;;;;;;;5028738;28;20030;-75
2022/03/31 12:21:18;;;;;;;7.80;7.00;;;;;;;;;;5031748;28;20054;-77
2022/03/31 12:23:47;;;;;;;8.50;7.60;;;;;;;;;;5029089;28;20045;-77
2022/03/31 12:26:34;;;;;;;9.27;8.35;;;;;;;;;;5011032;28;20037;-76
2022/03/31 12:29:02;;;;;;;9.60;7.22;;;;;;;;;;5017497;28;20069;-76
2022/03/31 12:31:35;;;;;;;8.25;7.38;;;;;;;;;;5025300;28;20107;-76
2022/03/31 12:34:04;;;;;;;8.63;6.55;;;;;;;;;;5006509;28;20041;-76
2022/03/31 12:36:33;;;;;;;7.88;6.82;;;;;;;;;;4989375;28;20044;-77
2022/03/31 12:39:03;;;;;;;7.28;6.57;;;;;;;;;;5029935;28;20044;-78
2022/03/31 12:41:35;;;;;;;8.50;7.63;;;;;;;;;;5027845;28;20052;-77
2022/03/31 12:44:10;;;;;;;7.03;5.82;;;;;;;;;;4990956;28;20064;-78
2022/03/31 12:46:38;;;;;;;6.00;5.40;;;;;;;;;;5003588;28;20839;-76
2022/03/31 12:49:08;;;;;;;6.40;5.80;;;;;;;;;;5006236;28;20456;-77
2022/03/31 12:51:47;;;;;;;6.82;6.13;;;;;;;;;;5022829;28;20067;-77
2022/03/31 12:54:38;;;;;;;5.93;5.43;;;;;;;;;;5021771;28;20093;-77
2022/03/31 12:57:12;;;;;;;6.05;5.45;;;;;;;;;;5011508;28;20077;-78
2022/03/31 12:59:41;;;;;;;5.20;4.80;;;;;;;;;;5024633;28;20046;-77
2022/03/31 13:02:13;;;;;;;6.43;5.75;;;;;;;;;;5021454;28;20095;-77
2022/03/31 13:04:40;;;;;;;6.82;6.20;;;;;;;;;;5022131;28;20377;-77
2022/03/31 13:07:14;;;;;;;6.68;6.07;;;;;;;;;;5026375;28;20129;-78
2022/03/31 13:09:43;;;;;;;7.80;5.28;;;;;;;;;;5005911;28;20064;-78
2022/03/31 13:12:11;;;;;;;6.60;6.05;;;;;;;;;;5025347;28;20042;-78
2022/03/31 13:14:43;;;;;;;6.13;5.53;;;;;;;;;;5023381;28;20041;-77
2022/03/31 13:17:12;;;;;;;4.95;4.45;;;;;;;;;;5020043;28;20065;-77
2022/03/31 13:19:39;;;;;;;6.43;5.07;;;;;;;;;;5022100;28;20046;-77
2022/03/31 13:22:08;;;;;;;5.55;5.05;;;;;;;;;;5005204;28;20057;-78
2022/03/31 13:24:35;;;;;;;6.07;5.47;;;;;;;;;;5019913;28;20041;-77
2022/03/31 13:27:02;;;;;;;7.20;4.78;;;;;;;;;;5001958;28;20050;-77
2022/03/31 13:29:30;;;;;;;4.93;4.53;;;;;;;;;;5008642;28;20041;-78
2022/03/31 13:31:58;;;;;;;6.20;5.10;;;;;;;;;;5016562;28;20053;-78
2022/03/31 13:34:31;;;;;;;6.70;5.25;;;;;;;;;;5010435;28;20445;-76
2022/03/31 13:37:01;;;;;;;5.22;4.72;;;;;;;;;;5016786;28;20053;-78
2022/03/31 13:39:30;;;;;;;4.10;3.80;;;;;;;;;;5013567;28;20095;-78
2022/03/31 13:41:57;;;;;;;4.75;3.75;;;;;;;;;;5010309;28;20045;-80
2022/03/31 13:44:25;;;;;;;4.60;4.20;;;;;;;;;;5017261;28;20050;-78
2022/03/31 13:46:53;;;;;;;4.63;4.13;;;;;;;;;;5022084;28;20052;-77
2022/03/31 13:49:21;;;;;;;4.05;3.75;;;;;;;;;;5018658;28;20073;-78
2022/03/31 13:51:49;;;;;;;4.70;4.30;;;;;;;;;;5015978;28;20137;-77
2022/03/31 13:54:17;;;;;;;3.65;3.45;;;;;;;;;;5013534;28;20120;-78
2022/03/31 13:56:45;;;;;;;4.43;4.03;;;;;;;;;;5006857;28;20041;-78
2022/03/31 14:02:03;;;;;;;6.28;4.28;;;;;;;;;;5020322;28;20049;-79
2022/03/31 14:04:34;;;;;;;4.78;4.30;;;;;;;;;;5027552;23;20132;-75
2022/03/31 14:07:22;;;;;;;4.80;4.40;;;;;;;;;;5033236;28;20047;-76
2022/03/31 14:09:50;;;;;;;4.40;4.00;;;;;;;;;;5029680;28;20060;-76
2022/03/31 14:12:17;;;;;;;4.57;4.20;;;;;;;;;;5024381;28;20041;-76
2022/03/31 14:14:44;;;;;;;5.47;4.30;;;;;;;;;;5053636;28;20051;-75
2022/03/31 14:17:12;;;;;;;5.00;4.60;;;;;;;;;;5046849;28;20368;-76
2022/03/31 14:19:41;;;;;;;4.15;3.78;;;;;;;;;;5014465;28;20265;-75
2022/03/31 14:22:09;;;;;;;4.70;4.30;;;;;;;;;;5030795;28;20080;-76
2022/03/31 14:24:36;;;;;;;4.97;4.57;;;;;;;;;;5033125;28;20037;-76
2022/03/31 14:27:06;;;;;;;5.20;4.70;;;;;;;;;;5040441;28;20041;-76
2022/03/31 14:29:42;;;;;;;5.95;4.53;;;;;;;;;;5033330;28;20096;-76
2022/03/31 14:32:10;;;;;;;6.25;4.35;;;;;;;;;;5045181;28;20116;-75
2022/03/31 14:34:38;;;;;;;5.53;4.68;;;;;;;;;;5050218;28;20040;-76
2022/03/31 14:37:06;;;;;;;4.07;3.72;;;;;;;;;;5054907;28;20100;-75
2022/03/31 14:39:33;;;;;;;4.40;3.60;;;;;;;;;;5040814;28;20050;-76
2022/03/31 14:42:03;;;;;;;5.72;3.72;;;;;;;;;;5041676;28;20071;-78
2022/03/31 14:44:31;;;;;;;5.20;4.60;;;;;;;;;;5036722;28;20048;-75
2022/03/31 14:46:59;;;;;;;4.05;3.65;;;;;;;;;;5057248;28;20059;-76